createdAt,value
2019-05-15T00:00:23.109Z,10.40
2019-05-15T00:03:14.124Z,10.30
2019-05-15T00:06:02.822Z,10.30
2019-05-15T00:08:52.251Z,10.30
2019-05-15T00:11:40.605Z,10.30
2019-05-15T00:14:29.892Z,10.20
2019-05-15T00:17:19.321Z,10.10
2019-05-15T00:20:10.011Z,10.10
2019-05-15T00:22:58.920Z,10.00
2019-05-15T00:25:48.760Z,10.00
2019-05-15T00:28:39.036Z,9.90
2019-05-15T00:31:29.122Z,9.90
2019-05-15T00:34:18.668Z,9.90
2019-05-15T00:37:09.033Z,9.90
2019-05-15T00:39:59.294Z,9.80
2019-05-15T00:42:49.007Z,9.80
2019-05-15T00:45:38.921Z,9.70
2019-05-15T00:48:29.226Z,9.70
2019-05-15T00:51:19.750Z,9.70
2019-05-15T00:54:09.052Z,9.70
2019-05-15T00:56:58.096Z,9.70
2019-05-15T00:59:30.068Z,9.70
2019-05-15T01:02:18.928Z,9.70
2019-05-15T01:05:08.250Z,9.70
2019-05-15T01:07:58.684Z,9.70
2019-05-15T01:10:48.881Z,9.60
2019-05-15T01:13:38.986Z,9.60
2019-05-15T01:16:28.364Z,9.60
2019-05-15T01:19:18.507Z,9.60
2019-05-15T01:22:08.758Z,9.50
2019-05-15T01:24:58.990Z,9.50
2019-05-15T01:27:48.976Z,9.50
2019-05-15T01:30:39.530Z,9.50
2019-05-15T01:33:28.696Z,9.50
2019-05-15T01:36:19.347Z,9.50
2019-05-15T01:39:08.767Z,9.50
2019-05-15T01:41:58.560Z,9.40
2019-05-15T01:44:48.474Z,9.50
2019-05-15T01:47:21.208Z,9.40
2019-05-15T01:50:10.278Z,9.40
2019-05-15T01:52:59.544Z,9.40
2019-05-15T01:55:48.704Z,9.40
2019-05-15T01:58:38.402Z,9.40
2019-05-15T02:01:28.474Z,9.40
2019-05-15T02:04:19.597Z,9.40
2019-05-15T02:07:09.410Z,9.40
2019-05-15T02:09:58.381Z,9.40
2019-05-15T02:12:48.107Z,9.40
2019-05-15T02:15:25.073Z,9.40
2019-05-15T02:18:14.145Z,9.30
2019-05-15T02:21:06.453Z,9.30
2019-05-15T02:23:53.477Z,9.30
2019-05-15T02:26:43.240Z,9.20
2019-05-15T02:29:32.112Z,9.10
2019-05-15T02:32:21.416Z,9.10
2019-05-15T02:35:10.475Z,9.00
2019-05-15T02:37:59.933Z,8.90
2019-05-15T02:40:49.598Z,8.90
2019-05-15T02:43:25.653Z,8.80
2019-05-15T02:46:14.487Z,8.70
2019-05-15T02:49:03.634Z,8.70
2019-05-15T02:51:52.602Z,8.60
2019-05-15T02:54:41.629Z,8.50
2019-05-15T02:57:19.396Z,8.50
2019-05-15T03:00:10.798Z,8.50
2019-05-15T03:03:00.335Z,8.40
2019-05-15T03:05:50.022Z,8.40
2019-05-15T03:08:39.828Z,8.40
2019-05-15T03:11:29.662Z,8.30
2019-05-15T03:14:21.370Z,8.30
2019-05-15T03:17:09.805Z,8.30
2019-05-15T03:19:59.608Z,8.30
2019-05-15T03:22:49.254Z,8.30
2019-05-15T03:25:40.491Z,8.20
2019-05-15T03:28:29.618Z,8.20
2019-05-15T03:31:39.948Z,8.20
2019-05-15T03:34:19.321Z,8.10
2019-05-15T03:37:03.312Z,8.00
2019-05-15T03:39:51.903Z,8.00
2019-05-15T03:42:40.136Z,8.00
2019-05-15T03:45:29.900Z,7.90
2019-05-15T03:48:19.687Z,7.90
2019-05-15T03:51:09.353Z,7.90
2019-05-15T03:54:00.351Z,7.90
2019-05-15T03:56:50.321Z,7.80
2019-05-15T03:59:40.023Z,7.80
2019-05-15T04:02:29.459Z,7.80
2019-05-15T04:05:19.919Z,7.80
2019-05-15T04:08:11.100Z,7.80
2019-05-15T04:10:59.803Z,7.80
2019-05-15T04:13:49.930Z,7.80
2019-05-15T04:16:39.338Z,7.80
2019-05-15T04:19:29.592Z,7.80
2019-05-15T04:22:19.823Z,7.90
2019-05-15T04:25:10.533Z,7.90
2019-05-15T04:28:01.700Z,8.00
2019-05-15T04:30:51.052Z,8.00
2019-05-15T04:33:40.331Z,8.00
2019-05-15T04:36:29.921Z,8.10
2019-05-15T04:39:19.660Z,8.10
2019-05-15T04:42:10.104Z,8.10
2019-05-15T04:44:59.715Z,8.20
2019-05-15T04:47:39.569Z,8.20
2019-05-15T04:50:28.808Z,8.20
2019-05-15T04:53:19.278Z,8.30
2019-05-15T04:56:09.489Z,8.30
2019-05-15T04:58:59.955Z,8.30
2019-05-15T05:01:53.290Z,8.30
2019-05-15T05:04:40.457Z,8.30
2019-05-15T05:07:10.665Z,8.40
2019-05-15T05:09:41.154Z,8.40
2019-05-15T05:12:11.367Z,8.50
2019-05-15T05:15:00.594Z,8.50
2019-05-15T05:17:50.912Z,8.60
2019-05-15T05:20:39.686Z,8.60
2019-05-15T05:23:28.576Z,8.70
2019-05-15T05:26:18.527Z,8.70
2019-05-15T05:29:08.624Z,8.80
2019-05-15T05:31:58.626Z,8.80
2019-05-15T05:34:48.364Z,8.90
2019-05-15T05:37:39.038Z,9.00
2019-05-15T05:40:11.528Z,9.00
2019-05-15T05:42:41.739Z,9.10
2019-05-15T05:45:12.259Z,9.20
2019-05-15T05:47:42.703Z,9.30
2019-05-15T05:50:13.091Z,9.40
2019-05-15T05:52:43.379Z,9.40
2019-05-15T05:55:14.267Z,9.50
2019-05-15T05:57:44.313Z,9.60
2019-05-15T06:00:18.139Z,9.60
2019-05-15T06:02:52.125Z,9.70
2019-05-15T06:05:20.606Z,9.70
2019-05-15T06:07:50.887Z,9.80
2019-05-15T06:10:20.881Z,9.90
2019-05-15T06:12:51.053Z,10.00
2019-05-15T06:15:21.257Z,10.10
2019-05-15T06:17:51.808Z,10.20
2019-05-15T06:20:40.593Z,10.30
2019-05-15T06:23:35.213Z,10.50
2019-05-15T06:26:19.984Z,10.50
2019-05-15T06:29:08.962Z,10.50
2019-05-15T06:31:58.768Z,10.50
2019-05-15T06:34:48.598Z,10.50
2019-05-15T06:37:39.575Z,10.50
2019-05-15T06:40:29.211Z,10.60
2019-05-15T06:43:19.206Z,10.60
2019-05-15T06:46:09.140Z,10.70
2019-05-15T06:48:59.160Z,10.70
2019-05-15T06:51:48.805Z,10.70
2019-05-15T06:54:38.282Z,10.70
2019-05-15T06:57:28.677Z,10.80
2019-05-15T07:00:19.175Z,10.80
2019-05-15T07:03:20.275Z,10.90
2019-05-15T07:06:00.025Z,10.90
2019-05-15T07:08:49.516Z,10.90
2019-05-15T07:11:39.534Z,11.00
2019-05-15T07:14:28.857Z,11.00
2019-05-15T07:17:17.823Z,11.10
2019-05-15T07:20:08.715Z,11.20
2019-05-15T07:22:58.743Z,11.20
2019-05-15T07:25:49.805Z,11.20
2019-05-15T07:28:38.255Z,11.20
2019-05-15T07:31:28.830Z,11.20
2019-05-15T07:34:18.767Z,11.20
2019-05-15T07:37:09.761Z,11.20
2019-05-15T07:39:59.490Z,11.20
2019-05-15T07:42:49.213Z,11.30
2019-05-15T07:45:43.574Z,11.30
2019-05-15T07:48:29.241Z,11.40
2019-05-15T07:51:18.598Z,11.40
2019-05-15T07:54:09.128Z,11.50
2019-05-15T07:56:58.344Z,11.50
2019-05-15T07:59:48.090Z,11.50
2019-05-15T08:02:38.315Z,11.50
2019-05-15T08:05:28.564Z,11.50
2019-05-15T08:08:18.528Z,11.50
2019-05-15T08:11:17.440Z,11.60
2019-05-15T08:13:58.644Z,11.70
2019-05-15T08:16:48.681Z,11.70
2019-05-15T08:19:38.462Z,11.80
2019-05-15T08:22:28.517Z,11.90
2019-05-15T08:25:31.050Z,11.90
2019-05-15T08:28:09.059Z,12.00
2019-05-15T08:30:58.738Z,12.00
2019-05-15T08:33:48.240Z,12.10
2019-05-15T08:36:38.528Z,12.20
2019-05-15T08:39:28.484Z,12.20
2019-05-15T08:42:18.865Z,12.30
2019-05-15T08:45:09.397Z,12.40
2019-05-15T08:47:58.748Z,12.40
2019-05-15T08:50:48.699Z,12.40
2019-05-15T08:53:19.803Z,12.50
2019-05-15T08:55:50.104Z,12.50
2019-05-15T08:58:21.704Z,12.60
2019-05-15T09:00:52.693Z,12.60
2019-05-15T09:03:23.097Z,12.60
2019-05-15T09:05:53.531Z,12.70
2019-05-15T09:08:25.567Z,12.70
2019-05-15T09:10:58.599Z,12.80
2019-05-15T09:13:29.273Z,12.90
2019-05-15T09:15:59.915Z,13.00
2019-05-15T09:18:31.263Z,12.90
2019-05-15T09:21:02.499Z,13.00
2019-05-15T09:23:34.405Z,13.10
2019-05-15T09:26:08.958Z,13.20
2019-05-15T09:28:40.323Z,13.30
2019-05-15T09:31:12.660Z,13.30
2019-05-15T09:33:44.841Z,13.40
2019-05-15T09:36:15.054Z,13.50
2019-05-15T09:38:45.497Z,13.50
2019-05-15T09:41:17.774Z,13.50
2019-05-15T09:43:48.562Z,13.60
2019-05-15T09:46:19.332Z,13.70
2019-05-15T09:48:51.961Z,13.70
2019-05-15T09:51:21.515Z,13.80
2019-05-15T09:53:51.858Z,13.80
2019-05-15T09:56:22.237Z,13.80
2019-05-15T09:58:52.521Z,13.80
2019-05-15T10:01:23.342Z,13.90
2019-05-15T10:03:53.748Z,13.90
2019-05-15T10:06:24.118Z,13.90
2019-05-15T10:08:54.700Z,13.90
2019-05-15T10:11:24.976Z,13.90
2019-05-15T10:13:55.195Z,14.00
2019-05-15T10:16:25.610Z,14.20
2019-05-15T10:18:58.177Z,14.20
2019-05-15T10:21:32.447Z,14.10
2019-05-15T10:24:00.843Z,14.10
2019-05-15T10:26:31.199Z,14.10
2019-05-15T10:29:01.925Z,14.20
2019-05-15T10:31:32.364Z,14.30
2019-05-15T10:34:02.383Z,14.20
2019-05-15T10:36:34.345Z,14.20
2019-05-15T10:39:08.401Z,14.30
2019-05-15T10:41:38.829Z,14.30
2019-05-15T10:44:09.433Z,14.20
2019-05-15T10:46:39.648Z,14.30
2019-05-15T10:49:09.843Z,14.40
2019-05-15T10:51:40.083Z,14.40
2019-05-15T10:54:10.530Z,14.40
2019-05-15T10:56:40.737Z,14.40
2019-05-15T10:59:11.195Z,14.50
2019-05-15T11:01:41.503Z,14.70
2019-05-15T11:04:11.940Z,14.90
2019-05-15T11:06:42.012Z,15.00
2019-05-15T11:09:12.176Z,15.00
2019-05-15T11:11:42.443Z,15.00
2019-05-15T11:14:12.778Z,14.90
2019-05-15T11:16:43.071Z,14.90
2019-05-15T11:19:13.386Z,15.00
2019-05-15T11:21:43.820Z,15.00
2019-05-15T11:24:14.506Z,15.10
2019-05-15T11:26:44.770Z,15.20
2019-05-15T11:29:15.081Z,15.30
2019-05-15T11:31:45.716Z,15.50
2019-05-15T11:34:18.587Z,15.60
2019-05-15T11:36:48.600Z,15.60
2019-05-15T11:39:19.051Z,15.60
2019-05-15T11:41:49.670Z,15.70
2019-05-15T11:44:19.963Z,15.80
2019-05-15T11:46:50.268Z,15.90
2019-05-15T11:49:20.705Z,15.90
2019-05-15T11:51:50.836Z,16.00
2019-05-15T11:54:21.358Z,15.90
2019-05-15T11:56:51.790Z,15.90
2019-05-15T11:59:22.606Z,15.80
2019-05-15T12:01:52.910Z,15.90
2019-05-15T12:04:29.779Z,15.80
2019-05-15T12:07:02.126Z,16.00
2019-05-15T12:09:30.150Z,16.10
2019-05-15T12:12:01.273Z,16.30
2019-05-15T12:14:31.662Z,16.20
2019-05-15T12:17:10.387Z,16.20
2019-05-15T12:19:33.908Z,16.20
2019-05-15T12:22:04.215Z,16.40
2019-05-15T12:24:36.713Z,16.40
2019-05-15T12:29:39.814Z,16.70
2019-05-15T12:34:42.264Z,16.70
2019-05-15T12:37:12.843Z,16.80
2019-05-15T12:37:59.198Z,16.80
2019-05-15T12:39:43.111Z,16.90
2019-05-15T12:59:58.887Z,17.10
2019-05-15T13:02:29.150Z,17.30
2019-05-15T13:04:59.453Z,17.30
2019-05-15T13:07:30.107Z,17.30
2019-05-15T13:10:00.281Z,17.30
2019-05-15T13:12:34.076Z,17.40
2019-05-15T13:15:05.129Z,17.50
2019-05-15T13:17:35.448Z,17.50
2019-05-15T13:20:06.259Z,17.60
2019-05-15T13:22:39.238Z,17.50
2019-05-15T13:25:09.576Z,17.50
2019-05-15T13:27:40.266Z,17.60
2019-05-15T13:30:11.362Z,17.70
2019-05-15T13:32:41.898Z,17.80
2019-05-15T13:35:12.653Z,17.80
2019-05-15T13:37:43.177Z,18.00
2019-05-15T13:40:14.960Z,18.10
2019-05-15T13:42:45.489Z,18.10
2019-05-15T13:45:18.291Z,18.00
2019-05-15T13:47:48.400Z,17.90
2019-05-15T13:50:19.513Z,18.00
2019-05-15T13:52:50.439Z,18.00
2019-05-15T13:55:25.449Z,17.90
2019-05-15T13:57:52.497Z,18.00
2019-05-15T14:00:23.353Z,18.00
2019-05-15T14:02:53.707Z,17.90
2019-05-15T14:05:24.416Z,18.00
2019-05-15T14:07:54.626Z,18.00
2019-05-15T14:10:25.149Z,17.90
2019-05-15T14:12:58.412Z,17.80
2019-05-15T14:15:28.570Z,17.80
2019-05-15T14:17:59.121Z,18.00
2019-05-15T14:20:30.311Z,18.00
2019-05-15T14:23:00.902Z,18.10
2019-05-15T14:25:38.597Z,18.20
2019-05-15T14:28:08.916Z,18.30
2019-05-15T14:30:39.346Z,18.30
2019-05-15T14:33:09.656Z,18.30
2019-05-15T14:35:40.093Z,18.30
2019-05-15T14:38:10.677Z,18.40
2019-05-15T14:40:40.874Z,18.40
2019-05-15T14:43:11.221Z,18.50
2019-05-15T14:45:41.549Z,18.50
2019-05-15T14:48:12.095Z,18.40
2019-05-15T14:50:42.530Z,18.40
2019-05-15T14:53:13.029Z,18.60
2019-05-15T14:55:44.283Z,18.70
2019-05-15T14:58:14.818Z,18.70
2019-05-15T15:00:49.675Z,18.80
2019-05-15T15:03:18.412Z,18.60
2019-05-15T15:05:49.324Z,18.70
2019-05-15T15:08:24.846Z,18.70
2019-05-15T15:10:51.542Z,18.80
2019-05-15T15:13:22.246Z,18.80
2019-05-15T15:15:52.969Z,18.90
2019-05-15T15:18:23.614Z,18.90
2019-05-15T15:20:53.971Z,18.90
2019-05-15T15:23:24.459Z,19.00
2019-05-15T15:25:54.711Z,19.00
2019-05-15T15:28:25.182Z,19.00
2019-05-15T15:30:57.911Z,19.00
2019-05-15T15:33:28.812Z,19.00
2019-05-15T15:35:59.489Z,18.90
2019-05-15T15:38:40.270Z,18.90
2019-05-15T15:41:02.038Z,19.00
2019-05-15T15:43:32.499Z,19.00
2019-05-15T15:46:03.041Z,19.20
2019-05-15T15:48:34.569Z,19.30
2019-05-15T15:51:05.530Z,19.40
2019-05-15T15:53:35.843Z,19.60
2019-05-15T15:56:07.838Z,19.60
2019-05-15T15:58:38.431Z,19.50
2019-05-15T16:01:09.124Z,19.50
2019-05-15T16:03:40.088Z,19.60
2019-05-15T16:06:10.723Z,19.80
2019-05-15T16:08:51.932Z,19.80
2019-05-15T16:11:13.506Z,20.00
2019-05-15T16:13:46.325Z,20.30
2019-05-15T16:16:17.917Z,20.40
2019-05-15T16:18:49.241Z,20.50
2019-05-15T16:21:19.836Z,20.60
2019-05-15T16:23:50.223Z,20.60
2019-05-15T16:26:20.795Z,20.70
2019-05-15T16:28:51.453Z,20.90
2019-05-15T16:31:21.793Z,20.80
2019-05-15T16:33:52.043Z,20.80
2019-05-15T16:36:22.480Z,20.70
2019-05-15T16:39:04.129Z,20.60
2019-05-15T16:41:24.784Z,20.40
2019-05-15T16:43:55.070Z,20.30
2019-05-15T16:46:27.777Z,20.20
2019-05-15T16:48:58.453Z,20.20
2019-05-15T16:51:32.200Z,20.00
2019-05-15T16:54:01.242Z,19.70
2019-05-15T16:56:31.558Z,19.40
2019-05-15T16:59:02.579Z,19.20
2019-05-15T17:01:33.326Z,19.10
2019-05-15T17:04:05.575Z,19.00
2019-05-15T17:06:38.686Z,18.80
2019-05-15T17:09:20.363Z,18.80
2019-05-15T17:11:41.975Z,18.80
2019-05-15T17:14:12.322Z,18.80
2019-05-15T17:17:01.790Z,18.80
2019-05-15T17:19:50.909Z,18.80
2019-05-15T17:22:21.584Z,18.70
2019-05-15T17:25:10.960Z,18.50
2019-05-15T17:27:44.968Z,18.40
2019-05-15T17:30:18.092Z,18.40
2019-05-15T17:32:49.353Z,18.50
2019-05-15T17:35:19.874Z,18.50
2019-05-15T17:37:50.750Z,18.40
2019-05-15T17:40:21.187Z,18.40
2019-05-15T17:42:51.775Z,18.30
2019-05-15T17:45:22.361Z,17.90
2019-05-15T17:47:52.661Z,17.80
2019-05-15T17:50:23.059Z,17.60
2019-05-15T17:52:53.243Z,17.40
2019-05-15T17:55:23.601Z,17.40
2019-05-15T17:57:57.603Z,17.30
2019-05-15T18:00:28.522Z,17.30
2019-05-15T18:03:00.257Z,17.30
2019-05-15T18:05:30.847Z,17.30
2019-05-15T18:08:01.510Z,17.30
2019-05-15T18:10:31.934Z,17.30
2019-05-15T18:13:02.691Z,17.30
2019-05-15T18:15:33.464Z,17.30
2019-05-15T18:18:03.933Z,17.30
2019-05-15T18:20:34.712Z,17.20
2019-05-15T18:23:05.000Z,17.20
2019-05-15T18:25:38.186Z,17.10
2019-05-15T18:28:08.473Z,17.10
2019-05-15T18:30:39.318Z,17.10
2019-05-15T18:33:10.043Z,16.90
2019-05-15T18:35:40.230Z,16.70
2019-05-15T18:38:10.786Z,16.50
2019-05-15T18:40:41.096Z,16.40
2019-05-15T18:43:11.447Z,16.30
2019-05-15T18:45:41.721Z,16.20
2019-05-15T18:48:12.155Z,16.10
2019-05-15T18:50:43.072Z,16.00
2019-05-15T18:53:13.436Z,15.90
2019-05-15T18:55:43.853Z,15.80
2019-05-15T18:58:14.435Z,15.70
2019-05-15T19:00:44.822Z,15.60
2019-05-15T19:03:20.398Z,15.60
2019-05-15T19:05:47.738Z,15.50
2019-05-15T19:08:18.740Z,15.40
2019-05-15T19:11:08.347Z,15.30
2019-05-15T19:13:58.891Z,15.30
2019-05-15T19:16:48.453Z,15.20
2019-05-15T19:19:38.859Z,15.10
2019-05-15T19:22:27.602Z,14.90
2019-05-15T19:25:18.053Z,14.90
2019-05-15T19:28:08.449Z,14.80
2019-05-15T19:30:58.683Z,14.70
2019-05-15T19:33:48.640Z,14.60
2019-05-15T19:36:29.467Z,14.50
2019-05-15T19:39:18.962Z,14.50
2019-05-15T19:42:08.953Z,14.40
2019-05-15T19:44:59.131Z,14.30
2019-05-15T19:47:49.194Z,14.20
2019-05-15T19:50:38.526Z,14.20
2019-05-15T19:53:28.401Z,14.10
2019-05-15T19:56:18.969Z,14.10
2019-05-15T19:59:08.838Z,14.00
2019-05-15T20:01:57.842Z,13.90
2019-05-15T20:04:49.137Z,13.90
2019-05-15T20:07:38.904Z,13.90
2019-05-15T20:10:29.259Z,13.80
2019-05-15T20:13:19.471Z,13.70
2019-05-15T20:16:09.249Z,13.70
2019-05-15T20:18:58.330Z,13.70
2019-05-15T20:21:47.724Z,13.60
2019-05-15T20:24:38.219Z,13.50
2019-05-15T20:27:28.223Z,13.50
2019-05-15T20:30:18.089Z,13.40
2019-05-15T20:32:58.520Z,13.40
2019-05-15T20:35:48.101Z,13.30
2019-05-15T20:38:39.467Z,13.20
2019-05-15T20:41:28.877Z,13.20
2019-05-15T20:44:18.342Z,13.10
2019-05-15T20:47:08.277Z,13.10
2019-05-15T20:49:57.733Z,13.00
2019-05-15T20:52:48.805Z,13.00
2019-05-15T20:55:39.149Z,12.90
2019-05-15T20:58:19.191Z,12.90
2019-05-15T21:01:09.106Z,12.80
2019-05-15T21:03:59.441Z,12.80
2019-05-15T21:06:49.160Z,12.70
2019-05-15T21:09:39.506Z,12.70
2019-05-15T21:12:29.960Z,12.60
2019-05-15T21:15:21.369Z,12.60
2019-05-15T21:18:21.253Z,12.60
2019-05-15T21:21:02.386Z,12.50
2019-05-15T21:23:51.991Z,12.50
2019-05-15T21:26:40.993Z,12.40
2019-05-15T21:29:30.847Z,12.40
2019-05-15T21:32:20.354Z,12.40
2019-05-15T21:35:09.859Z,12.30
2019-05-15T21:38:00.387Z,12.30
2019-05-15T21:40:50.196Z,12.30
2019-05-15T21:43:39.778Z,12.20
2019-05-15T21:46:28.644Z,12.20
2019-05-15T21:49:19.129Z,12.20
2019-05-15T21:52:08.410Z,12.10
2019-05-15T21:55:00.375Z,12.10
2019-05-15T21:57:49.057Z,12.00
2019-05-15T22:00:41.444Z,12.00
2019-05-15T22:03:30.656Z,11.90
2019-05-15T22:06:19.431Z,11.90
2019-05-15T22:09:11.135Z,11.80
2019-05-15T22:12:01.377Z,11.80
2019-05-15T22:14:50.241Z,11.80
2019-05-15T22:17:39.198Z,11.70
2019-05-15T22:20:30.571Z,11.70
2019-05-15T22:23:19.245Z,11.70
2019-05-15T22:26:08.472Z,11.60
2019-05-15T22:28:58.445Z,11.60
2019-05-15T22:31:48.752Z,11.50
2019-05-15T22:34:38.155Z,11.50
2019-05-15T22:37:29.468Z,11.60
2019-05-15T22:40:18.668Z,11.50
2019-05-15T22:43:07.779Z,11.50
2019-05-15T22:45:58.876Z,11.50
2019-05-15T22:48:48.714Z,11.50
2019-05-15T22:51:38.286Z,11.50
2019-05-15T22:54:28.117Z,11.50
2019-05-15T22:57:17.759Z,11.50
2019-05-15T23:00:08.633Z,11.60
2019-05-15T23:02:57.993Z,11.60
2019-05-15T23:05:47.239Z,11.60
2019-05-15T23:08:38.396Z,11.50
2019-05-15T23:11:29.883Z,11.50
2019-05-15T23:14:18.113Z,11.50
2019-05-15T23:17:08.157Z,11.50
2019-05-15T23:19:58.240Z,11.50
2019-05-15T23:22:47.194Z,11.50
2019-05-15T23:25:38.041Z,11.50
2019-05-15T23:28:28.118Z,11.50
2019-05-15T23:31:18.850Z,11.50
2019-05-15T23:34:08.441Z,11.50
2019-05-15T23:36:57.676Z,11.50
2019-05-15T23:39:48.559Z,11.50
2019-05-15T23:42:38.951Z,11.50
2019-05-15T23:45:28.896Z,11.50
2019-05-15T23:48:18.334Z,11.40
2019-05-15T23:51:08.514Z,11.40
2019-05-15T23:53:58.728Z,11.30
2019-05-15T23:56:47.585Z,11.30
2019-05-15T23:59:38.406Z,11.20
